To NAV CANADA Home Page Login to a new session Search on AWWS site Feedback and Comments Disclaimer Vers la page française équivalente Tips FAQ What's new on the site To the Forecasts and Observations / NOTAM section To "File a Flight Plan" website Publications and other links Update of the User's profile FIC Telephone Numbers My Weather Data Folder Route Weather Data Regional Weather Data Local Weather Data To the Forecasts and Observations / NOTAM section
Request Generated 05/26/2015 at 03:25:39 UTC . Weather information available at that time is displayed.

METAR/TAF

FORT CHIPEWYAN/AB    (show WxCam)

METAR CYPY 260300Z AUTO 06015G21KT 9SM CLR 10/02 A2992 RMK SLP140=
METAR CYPY 260200Z AUTO 07017G26KT 9SM CLR 11/03 A2991 RMK PRESRR
SLP134=
METAR CYPY 260100Z AUTO 06025G33KT 9SM CLR 12/04 A2987 RMK SLP121=

*** REMARK        : Forecast period has ended; this was the last TAF issued
*** REMARQUE : La période de prévision est échue; ceci était le dernier TAF qui a été émis
TAF AMD CYPY 252139Z 2521/2522 34012KT P6SM SCT080 BKN120 TEMPO
2521/2522 VRB20G30KT P6SM -SHRA BKN080
RMK FCST BASED ON AUTO OBS. NXT FCST WILL BE ISSUED AT 261245Z=
Your time UTC time
Weather data provided by Environment Canada and NAV CANADA